^^
TXWeather Station Historical Data
Daily Summary for May 01, 2022 Units:  English    Metric   Both
Daily Weekly Monthly Yearly Custom
  High: Low: Average:
Temperature: 89.0 °F 72.0 °F 78.9 °F
Dew Point: 77.0 °F 68.0 °F 71.6 °F
Humidity: 89% 56% 79%
Wind Speed: 14mph 0mph 5.6mph
Wind Gust: 19mph - -
Wind- - ESE
Pressure: 30.0 in 29.9 in -
Precipitation: 0.260 in    
Historical Graphs
 
 
Tabular Data for May 01, 2022
Time Temperature Dew Point Pressure Wind Wind Speed Wind Gust Humidity Rainfall Rate (Hourly) solar
00:04 77.0 °F 71.0 °F 30.0 in SSE 4 mph 4 mph 82% 0.000 in 0.00 W/m2
00:09 77.0 °F 71.0 °F 30.0 in SSE 4 mph 4 mph 82% 0.000 in 0.00 W/m2
00:14 77.0 °F 71.0 °F 30.0 in SSE 5 mph 5 mph 82% 0.000 in 0.00 W/m2
00:19 77.0 °F 71.0 °F 30.0 in SSE 1 mph 2 mph 82% 0.000 in 0.00 W/m2
00:24 77.0 °F 71.0 °F 30.0 in SSE 2 mph 2 mph 82% 0.000 in 0.00 W/m2
00:29 77.0 °F 71.0 °F 30.0 in SSE 4 mph 4 mph 82% 0.000 in 0.00 W/m2
00:34 77.0 °F 71.0 °F 30.0 in SSE 2 mph 4 mph 83% 0.000 in 0.00 W/m2
00:39 77.0 °F 71.0 °F 30.0 in SSE 1 mph 1 mph 83% 0.000 in 0.00 W/m2
00:44 76.0 °F 71.0 °F 30.0 in Calm   1 mph 83% 0.000 in 0.00 W/m2
00:49 76.0 °F 71.0 °F 30.0 in SSE 1 mph 1 mph 83% 0.000 in 0.00 W/m2
00:54 76.0 °F 71.0 °F 30.0 in SSE 3 mph 3 mph 83% 0.000 in 0.00 W/m2
00:59 76.0 °F 71.0 °F 30.0 in South 4 mph 5 mph 83% 0.000 in 0.00 W/m2
01:04 76.0 °F 71.0 °F 30.0 in South 6 mph 6 mph 83% 0.000 in 0.00 W/m2
01:09 76.0 °F 70.0 °F 30.0 in South 6 mph 6 mph 83% 0.000 in 0.00 W/m2
01:14 76.0 °F 71.0 °F 30.0 in SSE 1 mph 2 mph 84% 0.000 in 0.00 W/m2
01:19 76.0 °F 71.0 °F 30.0 in SSE 5 mph 5 mph 84% 0.000 in 0.00 W/m2
01:24 76.0 °F 71.0 °F 30.0 in SSE 4 mph 5 mph 84% 0.000 in 0.00 W/m2
01:29 76.0 °F 71.0 °F 30.0 in South 4 mph 5 mph 84% 0.000 in 0.00 W/m2
01:34 76.0 °F 71.0 °F 30.0 in South 4 mph 5 mph 84% 0.000 in 0.00 W/m2
01:39 76.0 °F 71.0 °F 30.0 in South 6 mph 6 mph 84% 0.000 in 0.00 W/m2
01:44 76.0 °F 70.0 °F 30.0 in South 6 mph 7 mph 84% 0.000 in 0.00 W/m2
01:49 76.0 °F 71.0 °F 30.0 in SSE 6 mph 6 mph 85% 0.000 in 0.00 W/m2
01:54 76.0 °F 71.0 °F 30.0 in South 5 mph 6 mph 85% 0.000 in 0.00 W/m2
01:59 75.0 °F 71.0 °F 29.9 in South 6 mph 7 mph 85% 0.000 in 0.00 W/m2
02:04 75.0 °F 71.0 °F 29.9 in South 6 mph 6 mph 85% 0.000 in 0.00 W/m2
02:09 75.0 °F 71.0 °F 29.9 in South 4 mph 5 mph 85% 0.000 in 0.00 W/m2
02:14 75.0 °F 70.0 °F 29.9 in South 6 mph 6 mph 85% 0.000 in 0.00 W/m2
02:19 75.0 °F 70.0 °F 29.9 in South 5 mph 8 mph 85% 0.000 in 0.00 W/m2
02:24 75.0 °F 70.0 °F 29.9 in South 7 mph 7 mph 85% 0.000 in 0.00 W/m2
02:29 75.0 °F 70.0 °F 29.9 in South 7 mph 7 mph 85% 0.000 in 0.00 W/m2
02:34 75.0 °F 70.0 °F 29.9 in SSE 8 mph 8 mph 85% 0.000 in 0.00 W/m2
02:39 75.0 °F 70.0 °F 29.9 in South 9 mph 10 mph 86% 0.000 in 0.00 W/m2
02:44 75.0 °F 70.0 °F 29.9 in SSE 10 mph 12 mph 86% 0.000 in 0.00 W/m2
02:49 75.0 °F 70.0 °F 29.9 in South 7 mph 12 mph 86% 0.000 in 0.00 W/m2
02:54 75.0 °F 70.0 °F 29.9 in South 6 mph 8 mph 86% 0.000 in 0.00 W/m2
02:59 75.0 °F 70.0 °F 29.9 in South 6 mph 8 mph 86% 0.000 in 0.00 W/m2
03:04 75.0 °F 70.0 °F 29.9 in South 4 mph 6 mph 86% 0.000 in 0.00 W/m2
03:09 74.0 °F 70.0 °F 29.9 in South 5 mph 6 mph 86% 0.000 in 0.00 W/m2
03:14 74.0 °F 70.0 °F 29.9 in SSW 5 mph 5 mph 86% 0.000 in 0.00 W/m2
03:19 74.0 °F 70.0 °F 29.9 in South 2 mph 5 mph 86% 0.000 in 0.00 W/m2
03:24 74.0 °F 70.0 °F 29.9 in South 4 mph 5 mph 86% 0.000 in 0.00 W/m2
03:29 74.0 °F 70.0 °F 29.9 in SW 4 mph 5 mph 87% 0.000 in 0.00 W/m2
03:34 74.0 °F 70.0 °F 29.9 in SSW 4 mph 4 mph 87% 0.000 in 0.00 W/m2
03:39 74.0 °F 70.0 °F 29.9 in SW 3 mph 4 mph 87% 0.000 in 0.00 W/m2
03:44 74.0 °F 70.0 °F 30.0 in SW 2 mph 2 mph 87% 0.000 in 0.00 W/m2
03:49 74.0 °F 70.0 °F 30.0 in SW 3 mph 3 mph 87% 0.000 in 0.00 W/m2
03:54 74.0 °F 70.0 °F 30.0 in West 3 mph 3 mph 87% 0.000 in 0.00 W/m2
03:59 74.0 °F 70.0 °F 30.0 in NW 3 mph 4 mph 87% 0.000 in 0.00 W/m2
04:04 74.0 °F 70.0 °F 30.0 in North 3 mph 4 mph 87% 0.000 in 0.00 W/m2
04:09 74.0 °F 70.0 °F 30.0 in North 4 mph 4 mph 88% 0.000 in 0.00 W/m2
04:14 74.0 °F 70.0 °F 30.0 in NNW 3 mph 5 mph 88% 0.000 in 0.00 W/m2
04:19 74.0 °F 70.0 °F 30.0 in North 5 mph 5 mph 88% 0.000 in 0.00 W/m2
04:24 74.0 °F 70.0 °F 30.0 in NNE 4 mph 4 mph 88% 0.000 in 0.00 W/m2
04:29 74.0 °F 70.0 °F 30.0 in NNE 4 mph 4 mph 88% 0.000 in 0.00 W/m2
04:34 74.0 °F 70.0 °F 30.0 in NNE 4 mph 7 mph 88% 0.000 in 0.00 W/m2
04:39 74.0 °F 70.0 °F 30.0 in NNE 3 mph 4 mph 88% 0.000 in 0.00 W/m2
04:44 74.0 °F 70.0 °F 30.0 in NNE 2 mph 2 mph 88% 0.000 in 0.00 W/m2
04:49 74.0 °F 70.0 °F 30.0 in NNE 1 mph 2 mph 88% 0.000 in 0.00 W/m2
04:54 74.0 °F 70.0 °F 30.0 in NNE 1 mph 1 mph 88% 0.000 in 0.00 W/m2
04:59 74.0 °F 70.0 °F 30.0 in NNE 2 mph 2 mph 88% 0.000 in 0.00 W/m2
05:04 74.0 °F 70.0 °F 30.0 in NNE 2 mph 2 mph 88% 0.000 in 0.00 W/m2
05:09 74.0 °F 70.0 °F 30.0 in NE 3 mph 4 mph 88% 0.000 in 0.00 W/m2
05:14 74.0 °F 70.0 °F 30.0 in NE 3 mph 4 mph 88% 0.000 in 0.00 W/m2
05:19 74.0 °F 70.0 °F 30.0 in NE 4 mph 4 mph 88% 0.000 in 0.00 W/m2
05:24 74.0 °F 70.0 °F 30.0 in NE 5 mph 5 mph 88% 0.000 in 0.00 W/m2
05:29 74.0 °F 70.0 °F 30.0 in NNE 8 mph 8 mph 88% 0.000 in 0.00 W/m2
05:34 74.0 °F 70.0 °F 30.0 in NNE 8 mph 8 mph 88% 0.000 in 0.00 W/m2
05:39 74.0 °F 70.0 °F 30.0 in NE 5 mph 7 mph 88% 0.000 in 0.00 W/m2
05:44 74.0 °F 70.0 °F 30.0 in NNE 5 mph 6 mph 88% 0.000 in 0.00 W/m2
05:49 73.0 °F 70.0 °F 30.0 in NNE 4 mph 5 mph 88% 0.000 in 0.00 W/m2
05:54 73.0 °F 69.0 °F 30.0 in NE 4 mph 4 mph 88% 0.000 in 0.00 W/m2
05:59 73.0 °F 69.0 °F 30.0 in NE 2 mph 4 mph 88% 0.000 in 0.00 W/m2
06:04 73.0 °F 69.0 °F 30.0 in NE 4 mph 5 mph 88% 0.000 in 0.00 W/m2
06:09 73.0 °F 69.0 °F 30.0 in NE 4 mph 5 mph 87% 0.000 in 0.00 W/m2
06:14 73.0 °F 69.0 °F 30.0 in NE 3 mph 3 mph 87% 0.000 in 0.00 W/m2
06:19 73.0 °F 69.0 °F 30.0 in NE 4 mph 4 mph 87% 0.000 in 0.00 W/m2
06:24 73.0 °F 69.0 °F 30.0 in NE 2 mph 3 mph 87% 0.000 in 0.00 W/m2
06:29 73.0 °F 69.0 °F 30.0 in NE 3 mph 4 mph 87% 0.000 in 0.00 W/m2
06:34 73.0 °F 69.0 °F 30.0 in NNE 1 mph 2 mph 87% 0.000 in 0.00 W/m2
06:39 73.0 °F 69.0 °F 30.0 in NNE 2 mph 2 mph 87% 0.000 in 0.00 W/m2
06:44 73.0 °F 69.0 °F 30.0 in NNE 1 mph 1 mph 87% 0.000 in 0.00 W/m2
06:49 73.0 °F 69.0 °F 30.0 in NNE 2 mph 2 mph 87% 0.000 in 5.00 W/m2
06:54 73.0 °F 69.0 °F 30.0 in NNE 2 mph 2 mph 87% 0.000 in 9.00 W/m2
06:59 73.0 °F 69.0 °F 30.0 in Calm   1 mph 87% 0.000 in 11.00 W/m2
07:04 73.0 °F 69.0 °F 30.0 in Calm     87% 0.000 in 12.00 W/m2
07:09 73.0 °F 69.0 °F 30.0 in NNE 1 mph 1 mph 87% 0.000 in 16.00 W/m2
07:14 73.0 °F 68.0 °F 30.0 in NNE 1 mph 1 mph 87% 0.000 in 21.00 W/m2
07:19 72.0 °F 68.0 °F 30.0 in NNE 1 mph 2 mph 87% 0.000 in 25.00 W/m2
07:24 72.0 °F 69.0 °F 30.0 in NNE 2 mph 2 mph 88% 0.000 in 30.00 W/m2
07:29 72.0 °F 69.0 °F 30.0 in NNE 2 mph 2 mph 88% 0.000 in 35.00 W/m2
07:34 73.0 °F 69.0 °F 30.0 in NNE 2 mph 2 mph 88% 0.000 in 42.00 W/m2
07:39 73.0 °F 69.0 °F 30.0 in NNE 2 mph 2 mph 88% 0.000 in 46.00 W/m2
07:44 73.0 °F 69.0 °F 30.0 in NNE 3 mph 3 mph 88% 0.000 in 49.00 W/m2
07:49 73.0 °F 69.0 °F 30.0 in NE 2 mph 2 mph 88% 0.000 in 58.00 W/m2
07:54 73.0 °F 69.0 °F 30.0 in NE 2 mph 2 mph 88% 0.000 in 62.00 W/m2
07:59 73.0 °F 70.0 °F 30.0 in East 3 mph 3 mph 89% 0.000 in 69.00 W/m2
08:04 73.0 °F 70.0 °F 30.0 in East 3 mph 3 mph 89% 0.000 in 77.00 W/m2
08:09 74.0 °F 70.0 °F 30.0 in NE 2 mph 2 mph 89% 0.000 in 84.00 W/m2
08:14 74.0 °F 70.0 °F 30.0 in NE 3 mph 3 mph 89% 0.000 in 97.00 W/m2
08:19 74.0 °F 71.0 °F 30.0 in East 2 mph 3 mph 89% 0.000 in 118.00 W/m2
08:24 74.0 °F 71.0 °F 30.0 in ESE 7 mph 7 mph 89% 0.000 in 123.00 W/m2
08:29 75.0 °F 71.0 °F 30.0 in ENE 4 mph 7 mph 89% 0.000 in 123.00 W/m2
08:34 75.0 °F 71.0 °F 30.0 in ENE 4 mph 4 mph 89% 0.000 in 104.00 W/m2
08:39 75.0 °F 71.0 °F 30.0 in East 3 mph 4 mph 89% 0.000 in 130.00 W/m2
08:44 75.0 °F 72.0 °F 30.0 in SE 4 mph 4 mph 89% 0.000 in 135.00 W/m2
08:49 75.0 °F 72.0 °F 30.0 in East 6 mph 7 mph 89% 0.000 in 153.00 W/m2
08:54 76.0 °F 72.0 °F 30.0 in ESE 4 mph 4 mph 88% 0.000 in 272.00 W/m2
08:59 76.0 °F 72.0 °F 30.0 in ESE 7 mph 8 mph 88% 0.000 in 225.00 W/m2
09:04 76.0 °F 72.0 °F 30.0 in SE 7 mph 9 mph 88% 0.000 in 406.00 W/m2
09:09 77.0 °F 72.0 °F 30.0 in ESE 6 mph 9 mph 87% 0.000 in 420.00 W/m2
09:14 77.0 °F 73.0 °F 30.0 in ESE 8 mph 8 mph 87% 0.000 in 427.00 W/m2
09:19 77.0 °F 73.0 °F 30.0 in ESE 4 mph 4 mph 86% 0.000 in 443.00 W/m2
09:24 78.0 °F 73.0 °F 30.0 in ESE 6 mph 6 mph 85% 0.000 in 466.00 W/m2
09:29 78.0 °F 73.0 °F 30.0 in East 6 mph 7 mph 85% 0.000 in 431.00 W/m2
09:34 79.0 °F 73.0 °F 30.0 in ESE 5 mph 5 mph 83% 0.000 in 496.00 W/m2
09:44 80.0 °F 73.0 °F 30.0 in ESE 4 mph 4 mph 81% 0.000 in 197.00 W/m2
09:49 80.0 °F 73.0 °F 30.0 in SE 5 mph 5 mph 80% 0.000 in 172.00 W/m2
09:54 80.0 °F 73.0 °F 30.0 in SE 3 mph 3 mph 79% 0.000 in 283.00 W/m2
09:59 80.0 °F 72.0 °F 30.0 in SE 7 mph 7 mph 77% 0.000 in 381.00 W/m2
10:04 80.0 °F 72.0 °F 30.0 in SE 4 mph 7 mph 77% 0.000 in 381.00 W/m2
10:09 80.0 °F 72.0 °F 30.0 in ESE 4 mph 5 mph 76% 0.000 in 253.00 W/m2
10:14 81.0 °F 72.0 °F 30.0 in SE 5 mph 5 mph 76% 0.000 in 394.00 W/m2
10:19 81.0 °F 73.0 °F 30.0 in East 4 mph 4 mph 76% 0.000 in 726.00 W/m2
10:24 82.0 °F 73.0 °F 30.0 in ESE 8 mph 8 mph 77% 0.000 in 763.00 W/m2
10:29 82.0 °F 73.0 °F 30.0 in SE 7 mph 8 mph 76% 0.000 in 761.00 W/m2
10:34 82.0 °F 73.0 °F 30.0 in SE 9 mph 9 mph 73% 0.000 in 761.00 W/m2
10:39 83.0 °F 73.0 °F 30.0 in East 3 mph 7 mph 72% 0.000 in 271.00 W/m2
10:44 83.0 °F 73.0 °F 30.0 in SE 5 mph 6 mph 73% 0.000 in 879.00 W/m2
10:49 84.0 °F 73.0 °F 30.0 in SE 8 mph 8 mph 72% 0.000 in 926.00 W/m2
10:54 84.0 °F 73.0 °F 30.0 in SE 9 mph 9 mph 71% 0.000 in 926.00 W/m2
10:59 84.0 °F 73.0 °F 30.0 in SE 8 mph 9 mph 69% 0.000 in 250.00 W/m2
11:04 84.0 °F 72.0 °F 30.0 in SE 6 mph 8 mph 68% 0.000 in 264.00 W/m2
11:09 85.0 °F 73.0 °F 30.0 in SSE 7 mph 7 mph 69% 0.000 in 944.00 W/m2
11:14 85.0 °F 73.0 °F 30.0 in SE 8 mph 8 mph 69% 0.000 in 937.00 W/m2
11:19 85.0 °F 72.0 °F 30.0 in SE 5 mph 8 mph 66% 0.000 in 229.00 W/m2
11:24 85.0 °F 73.0 °F 30.0 in SE 3 mph 4 mph 67% 0.000 in 954.00 W/m2
11:29 85.0 °F 73.0 °F 30.0 in ESE 5 mph 7 mph 68% 0.000 in 1004.00 W/m2
11:34 85.0 °F 72.0 °F 30.0 in SE 4 mph 4 mph 66% 0.000 in 401.00 W/m2
11:39 86.0 °F 72.0 °F 30.0 in ESE 7 mph 8 mph 65% 0.000 in 1013.00 W/m2
11:44 86.0 °F 72.0 °F 30.0 in SE 7 mph 8 mph 65% 0.000 in 1009.00 W/m2
11:49 86.0 °F 72.0 °F 30.0 in SSE 4 mph 4 mph 64% 0.000 in 309.00 W/m2
11:54 86.0 °F 72.0 °F 30.0 in SE 6 mph 6 mph 64% 0.000 in 338.00 W/m2
11:59 86.0 °F 72.0 °F 30.0 in SE 7 mph 7 mph 64% 0.000 in 369.00 W/m2
12:04 86.0 °F 73.0 °F 30.0 in ESE 5 mph 7 mph 64% 0.000 in 369.00 W/m2
12:09 86.0 °F 72.0 °F 30.0 in SE 5 mph 6 mph 62% 0.000 in 283.00 W/m2
12:14 86.0 °F 72.0 °F 30.0 in ESE 8 mph 8 mph 62% 0.000 in 292.00 W/m2
12:19 86.0 °F 73.0 °F 30.0 in SE 2 mph 3 mph 64% 0.000 in 997.00 W/m2
12:24 86.0 °F 73.0 °F 30.0 in SSE 5 mph 5 mph 64% 0.000 in 997.00 W/m2
12:29 86.0 °F 72.0 °F 30.0 in SE 6 mph 6 mph 62% 0.000 in 251.00 W/m2
12:34 86.0 °F 72.0 °F 30.0 in SSE 5 mph 5 mph 62% 0.000 in 1011.00 W/m2
12:39 87.0 °F 72.0 °F 30.0 in SSE 2 mph 5 mph 62% 0.000 in 1048.00 W/m2
12:44 87.0 °F 73.0 °F 30.0 in SSE 4 mph 5 mph 64% 0.000 in 1109.00 W/m2
12:49 88.0 °F 73.0 °F 30.0 in SE 6 mph 6 mph 62% 0.000 in 1097.00 W/m2
12:54 88.0 °F 72.0 °F 30.0 in SSE 6 mph 7 mph 60% 0.000 in 1025.00 W/m2
12:59 88.0 °F 72.0 °F 30.0 in SE 4 mph 5 mph 59% 0.000 in 309.00 W/m2
13:04 88.0 °F 73.0 °F 30.0 in East 2 mph 3 mph 61% 0.000 in 1071.00 W/m2
13:09 89.0 °F 73.0 °F 30.0 in SSE 5 mph 7 mph 61% 0.000 in 1055.00 W/m2
13:14 89.0 °F 73.0 °F 30.0 in ESE 6 mph 7 mph 60% 0.000 in 1086.00 W/m2
13:19 89.0 °F 74.0 °F 30.0 in SE 6 mph 8 mph 61% 0.000 in 1107.00 W/m2
13:24 89.0 °F 72.0 °F 30.0 in SE 7 mph 8 mph 58% 0.000 in 680.00 W/m2
13:29 89.0 °F 73.0 °F 30.0 in East 4 mph 4 mph 59% 0.000 in 1100.00 W/m2
13:34 89.0 °F 73.0 °F 30.0 in SE 3 mph 4 mph 59% 0.000 in 1049.00 W/m2
13:39 89.0 °F 73.0 °F 30.0 in SE 7 mph 7 mph 59% 0.000 in 385.00 W/m2
13:44 89.0 °F 72.0 °F 30.0 in ESE 5 mph 7 mph 58% 0.000 in 357.00 W/m2
13:49 89.0 °F 72.0 °F 30.0 in ESE 4 mph 6 mph 58% 0.000 in 251.00 W/m2
13:54 89.0 °F 73.0 °F 30.0 in ESE 8 mph 8 mph 59% 0.000 in 339.00 W/m2
13:59 89.0 °F 73.0 °F 30.0 in SE 6 mph 7 mph 59% 0.000 in 937.00 W/m2
14:04 89.0 °F 73.0 °F 30.0 in ESE 7 mph 7 mph 59% 0.000 in 1092.00 W/m2
14:09 89.0 °F 73.0 °F 30.0 in SE 4 mph 4 mph 59% 0.000 in 258.00 W/m2
14:14 89.0 °F 72.0 °F 30.0 in East 3 mph 4 mph 57% 0.000 in 158.00 W/m2
14:19 89.0 °F 71.0 °F 30.0 in East 8 mph 8 mph 56% 0.000 in 135.00 W/m2
14:24 89.0 °F 71.0 °F 30.0 in ESE 4 mph 8 mph 56% 0.000 in 111.00 W/m2
14:29 88.0 °F 71.0 °F 30.0 in SE 7 mph 7 mph 58% 0.000 in 67.00 W/m2
14:34 88.0 °F 71.0 °F 30.0 in SSE 14 mph 19 mph 60% 0.000 in 32.00 W/m2
14:39 87.0 °F 74.0 °F 30.0 in SSE 12 mph 15 mph 68% 0.060 in 127.00 W/m2
14:44 86.0 °F 74.0 °F 30.0 in SE 11 mph 11 mph 70% 0.090 in 251.00 W/m2
14:49 84.0 °F 73.0 °F 30.0 in ESE 9 mph 12 mph 72% 0.120 in 153.00 W/m2
14:54 83.0 °F 73.0 °F 30.0 in East 11 mph 11 mph 74% 0.120 in 174.00 W/m2
14:59 81.0 °F 72.0 °F 30.0 in East 12 mph 12 mph 75% 0.120 in 190.00 W/m2
15:04 80.0 °F 71.0 °F 30.0 in ESE 7 mph 9 mph 77% 0.120 in 200.00 W/m2
15:09 79.0 °F 71.0 °F 30.0 in East 6 mph 6 mph 78% 0.120 in 190.00 W/m2
15:14 79.0 °F 72.0 °F 30.0 in NNE 8 mph 8 mph 80% 0.120 in 264.00 W/m2
15:19 78.0 °F 72.0 °F 30.0 in NE 5 mph 7 mph 81% 0.120 in 352.00 W/m2
15:24 78.0 °F 73.0 °F 30.0 in East 6 mph 6 mph 82% 0.120 in 304.00 W/m2
15:29 78.0 °F 73.0 °F 30.0 in SE 4 mph 7 mph 82% 0.120 in 253.00 W/m2
15:34 78.0 °F 72.0 °F 30.0 in SE 5 mph 7 mph 81% 0.120 in 160.00 W/m2
15:39 78.0 °F 71.0 °F 30.0 in South 7 mph 8 mph 81% 0.120 in 81.00 W/m2
15:44 78.0 °F 71.0 °F 30.0 in ESE 8 mph 8 mph 81% 0.070 in 167.00 W/m2
15:49 77.0 °F 71.0 °F 30.0 in NE 12 mph 13 mph 82% 0.050 in 230.00 W/m2
15:54 77.0 °F 72.0 °F 30.0 in NE 4 mph 6 mph 84% 0.040 in 258.00 W/m2
15:59 78.0 °F 73.0 °F 30.0 in NNE 5 mph 8 mph 86% 0.040 in 884.00 W/m2
16:04 78.0 °F 74.0 °F 30.0 in NNE 8 mph 8 mph 87% 0.050 in 810.00 W/m2
16:09 78.0 °F 74.0 °F 30.0 in NE 5 mph 6 mph 87% 0.050 in 731.00 W/m2
16:14 79.0 °F 75.0 °F 30.0 in NE 4 mph 4 mph 86% 0.060 in 673.00 W/m2
16:19 79.0 °F 75.0 °F 30.0 in ESE 4 mph 6 mph 86% 0.060 in 664.00 W/m2
16:24 80.0 °F 75.0 °F 30.0 in East 4 mph 6 mph 86% 0.070 in 664.00 W/m2
16:29 80.0 °F 75.0 °F 30.0 in East 5 mph 5 mph 86% 0.070 in 643.00 W/m2
16:34 80.0 °F 76.0 °F 30.0 in ESE 5 mph 5 mph 86% 0.080 in 554.00 W/m2
16:39 81.0 °F 76.0 °F 30.0 in ESE 7 mph 7 mph 86% 0.080 in 645.00 W/m2
16:44 81.0 °F 77.0 °F 30.0 in SE 10 mph 10 mph 86% 0.070 in 661.00 W/m2
16:49 82.0 °F 77.0 °F 30.0 in ESE 8 mph 10 mph 86% 0.070 in 538.00 W/m2
16:54 82.0 °F 76.0 °F 30.0 in SE 8 mph 9 mph 84% 0.060 in 489.00 W/m2
16:59 81.0 °F 75.0 °F 30.0 in SE 9 mph 9 mph 81% 0.060 in 341.00 W/m2
17:04 81.0 °F 74.0 °F 30.0 in SSE 7 mph 8 mph 79% 0.060 in 338.00 W/m2
17:09 81.0 °F 73.0 °F 30.0 in SE 8 mph 9 mph 77% 0.050 in 279.00 W/m2
17:14 81.0 °F 73.0 °F 30.0 in SE 8 mph 9 mph 77% 0.050 in 251.00 W/m2
17:19 81.0 °F 73.0 °F 30.0 in SE 9 mph 9 mph 76% 0.050 in 322.00 W/m2
17:24 81.0 °F 73.0 °F 29.9 in SE 5 mph 7 mph 76% 0.050 in 258.00 W/m2
17:29 82.0 °F 73.0 °F 29.9 in SE 5 mph 8 mph 75% 0.040 in 399.00 W/m2
17:34 82.0 °F 73.0 °F 29.9 in SE 9 mph 9 mph 75% 0.040 in 490.00 W/m2
17:39 82.0 °F 73.0 °F 29.9 in SE 8 mph 9 mph 75% 0.030 in 448.00 W/m2
17:44 83.0 °F 73.0 °F 29.9 in SE 9 mph 9 mph 74% 0.040 in 369.00 W/m2
17:49 83.0 °F 74.0 °F 29.9 in ESE 7 mph 9 mph 74% 0.030 in 287.00 W/m2
17:54 83.0 °F 74.0 °F 29.9 in SE 10 mph 10 mph 74% 0.030 in 269.00 W/m2
17:59 83.0 °F 74.0 °F 29.9 in ESE 6 mph 7 mph 74% 0.030 in 369.00 W/m2
18:04 83.0 °F 74.0 °F 29.9 in SE 7 mph 7 mph 75% 0.020 in 373.00 W/m2
18:09 83.0 °F 74.0 °F 29.9 in SE 7 mph 8 mph 75% 0.020 in 211.00 W/m2
18:14 83.0 °F 75.0 °F 29.9 in SE 7 mph 9 mph 76% 0.030 in 163.00 W/m2
18:19 83.0 °F 75.0 °F 29.9 in SE 12 mph 13 mph 76% 0.020 in 188.00 W/m2
18:24 83.0 °F 75.0 °F 29.9 in SE 8 mph 13 mph 76% 0.020 in 171.00 W/m2
18:29 83.0 °F 75.0 °F 29.9 in ESE 8 mph 9 mph 76% 0.020 in 255.00 W/m2
18:34 83.0 °F 75.0 °F 29.9 in SE 7 mph 10 mph 76% 0.020 in 253.00 W/m2
18:39 83.0 °F 75.0 °F 29.9 in SE 8 mph 10 mph 76% 0.020 in 192.00 W/m2
18:44 83.0 °F 75.0 °F 29.9 in ESE 9 mph 9 mph 76% 0.020 in 181.00 W/m2
18:49 83.0 °F 74.0 °F 29.9 in SE 7 mph 9 mph 75% 0.010 in 135.00 W/m2
18:54 83.0 °F 74.0 °F 29.9 in SE 5 mph 6 mph 75% 0.020 in 113.00 W/m2
18:59 83.0 °F 74.0 °F 29.9 in SE 8 mph 9 mph 75% 0.020 in 76.00 W/m2
19:04 83.0 °F 74.0 °F 29.9 in SE 8 mph 9 mph 75% 0.020 in 44.00 W/m2
19:09 83.0 °F 74.0 °F 29.9 in SE 11 mph 11 mph 74% 0.020 in 42.00 W/m2
19:14 82.0 °F 72.0 °F 29.9 in SSE 9 mph 9 mph 72% 0.020 in 49.00 W/m2
19:19 82.0 °F 72.0 °F 29.9 in SSE 10 mph 11 mph 72% 0.010 in 49.00 W/m2
19:24 82.0 °F 72.0 °F 29.9 in SE 7 mph 10 mph 72% 0.010 in 47.00 W/m2
19:29 82.0 °F 72.0 °F 29.9 in SE 10 mph 10 mph 72% 0.010 in 39.00 W/m2
19:34 82.0 °F 72.0 °F 29.9 in SE 7 mph 10 mph 72% 0.010 in 33.00 W/m2
19:39 82.0 °F 72.0 °F 29.9 in SE 8 mph 8 mph 73% 0.010 in 25.00 W/m2
19:44 81.0 °F 71.0 °F 29.9 in SE 9 mph 9 mph 72% 0.010 in 16.00 W/m2
19:49 81.0 °F 72.0 °F 29.9 in SE 8 mph 9 mph 73% 0.010 in 12.00 W/m2
19:54 81.0 °F 72.0 °F 29.9 in SE 9 mph 9 mph 73% 0.010 in 7.00 W/m2
19:59 81.0 °F 71.0 °F 29.9 in SE 7 mph 9 mph 73% 0.000 in 0.00 W/m2
20:04 81.0 °F 71.0 °F 29.9 in SE 7 mph 11 mph 74% 0.000 in 0.00 W/m2
20:09 80.0 °F 71.0 °F 29.9 in SE 9 mph 11 mph 74% 0.000 in 0.00 W/m2
20:14 80.0 °F 71.0 °F 29.9 in SE 7 mph 9 mph 74% 0.000 in 0.00 W/m2
20:19 80.0 °F 71.0 °F 29.9 in SE 8 mph 8 mph 75% 0.000 in 0.00 W/m2
20:24 80.0 °F 71.0 °F 29.9 in SE 9 mph 9 mph 75% 0.000 in 0.00 W/m2
20:29 80.0 °F 71.0 °F 29.9 in SE 7 mph 9 mph 75% 0.000 in 0.00 W/m2
20:34 79.0 °F 71.0 °F 29.9 in SE 6 mph 7 mph 76% 0.000 in 0.00 W/m2
20:39 79.0 °F 71.0 °F 29.9 in SE 4 mph 5 mph 76% 0.000 in 0.00 W/m2
20:44 79.0 °F 71.0 °F 30.0 in SE 5 mph 6 mph 76% 0.000 in 0.00 W/m2
20:49 79.0 °F 71.0 °F 30.0 in SE 5 mph 6 mph 77% 0.000 in 0.00 W/m2
20:54 79.0 °F 71.0 °F 30.0 in SE 7 mph 7 mph 77% 0.000 in 0.00 W/m2
20:59 79.0 °F 71.0 °F 30.0 in SE 9 mph 9 mph 78% 0.000 in 0.00 W/m2
21:04 79.0 °F 71.0 °F 30.0 in SE 5 mph 8 mph 78% 0.000 in 0.00 W/m2
21:09 78.0 °F 71.0 °F 30.0 in SE 7 mph 7 mph 79% 0.000 in 0.00 W/m2
21:14 78.0 °F 71.0 °F 30.0 in SE 4 mph 7 mph 79% 0.000 in 0.00 W/m2
21:19 78.0 °F 71.0 °F 30.0 in SE 4 mph 4 mph 79% 0.000 in 0.00 W/m2
21:24 78.0 °F 71.0 °F 30.0 in SE 5 mph 5 mph 79% 0.000 in 0.00 W/m2
21:29 78.0 °F 71.0 °F 30.0 in SE 4 mph 5 mph 80% 0.000 in 0.00 W/m2
21:34 78.0 °F 71.0 °F 30.0 in SE 4 mph 6 mph 80% 0.000 in 0.00 W/m2
21:39 78.0 °F 71.0 °F 30.0 in SE 5 mph 6 mph 81% 0.000 in 0.00 W/m2
21:44 78.0 °F 71.0 °F 30.0 in SE 4 mph 6 mph 81% 0.000 in 0.00 W/m2
21:49 78.0 °F 71.0 °F 30.0 in SE 9 mph 9 mph 81% 0.000 in 0.00 W/m2
21:54 77.0 °F 71.0 °F 30.0 in SE 5 mph 7 mph 81% 0.000 in 0.00 W/m2
21:59 77.0 °F 71.0 °F 30.0 in SE 5 mph 7 mph 82% 0.000 in 0.00 W/m2
22:04 77.0 °F 71.0 °F 30.0 in SE 9 mph 9 mph 82% 0.000 in 0.00 W/m2
22:09 77.0 °F 71.0 °F 30.0 in SE 9 mph 9 mph 82% 0.000 in 0.00 W/m2
22:14 77.0 °F 71.0 °F 30.0 in SE 8 mph 9 mph 82% 0.000 in 0.00 W/m2
22:19 77.0 °F 71.0 °F 30.0 in SE 10 mph 10 mph 82% 0.000 in 0.00 W/m2
22:24 77.0 °F 71.0 °F 30.0 in SE 9 mph 10 mph 82% 0.000 in 0.00 W/m2
22:29 77.0 °F 71.0 °F 30.0 in SE 6 mph 8 mph 82% 0.000 in 0.00 W/m2
22:34 77.0 °F 71.0 °F 30.0 in SE 8 mph 10 mph 83% 0.000 in 0.00 W/m2
22:39 77.0 °F 71.0 °F 30.0 in SE 12 mph 12 mph 83% 0.000 in 0.00 W/m2
22:44 77.0 °F 71.0 °F 30.0 in SE 9 mph 11 mph 83% 0.000 in 0.00 W/m2
22:49 77.0 °F 71.0 °F 30.0 in SE 9 mph 9 mph 83% 0.000 in 0.00 W/m2
22:54 77.0 °F 71.0 °F 30.0 in SE 8 mph 10 mph 83% 0.000 in 0.00 W/m2
22:59 77.0 °F 71.0 °F 30.0 in SE 9 mph 10 mph 83% 0.000 in 0.00 W/m2
23:04 77.0 °F 71.0 °F 30.0 in SE 8 mph 10 mph 83% 0.000 in 0.00 W/m2
23:09 77.0 °F 71.0 °F 30.0 in SE 9 mph 10 mph 83% 0.000 in 0.00 W/m2
23:14 77.0 °F 71.0 °F 30.0 in SE 9 mph 10 mph 83% 0.000 in 0.00 W/m2
23:19 77.0 °F 71.0 °F 30.0 in SE 7 mph 7 mph 83% 0.000 in 0.00 W/m2
23:24 77.0 °F 71.0 °F 30.0 in SE 6 mph 7 mph 83% 0.000 in 0.00 W/m2
23:29 77.0 °F 71.0 °F 30.0 in SE 6 mph 7 mph 83% 0.000 in 0.00 W/m2
23:34 76.0 °F 71.0 °F 30.0 in SE 8 mph 8 mph 83% 0.000 in 0.00 W/m2
23:39 76.0 °F 71.0 °F 30.0 in SE 8 mph 9 mph 83% 0.000 in 0.00 W/m2
23:44 76.0 °F 71.0 °F 30.0 in SE 7 mph 9 mph 83% 0.000 in 0.00 W/m2
23:49 76.0 °F 71.0 °F 30.0 in SE 7 mph 8 mph 83% 0.000 in 0.00 W/m2
23:54 76.0 °F 70.0 °F 30.0 in SE 6 mph 7 mph 83% 0.000 in 0.00 W/m2
23:59 76.0 °F 70.0 °F 30.0 in SE 4 mph 4 mph 83% 0.000 in 0.00 W/m2
Villages of Bridgestone, Spring, TX USA
Compliments of Weather Underground - 4 mb